Skip Navigation LinksHome page > Weather > Current weather Skip Navigation Links

Current Weather

Manassas Regional/Harry P. Davis Field, Manassas, Va.

For information only: do not use for flight planning or navigation.
Latest weather
Observation time Wednesday, January 27, 2021 11:56 AM EST
Local time Wednesday, January 27, 2021 12:47 PM EST
Flight conditions Visual Meteorological Conditions
Winds
Wind direction North-Northwest (340°)
Wind speed 18 mph
Visibility 10 mi.
Sky condition
Ceiling 3,500 ft. overcast
Cloud layer overcast 3,500 ft.
Temperature 40°F
Dewpoint 30°F
Altimeter 30.12 in.Hg
Derived measurements
Relative humidity 67%
Wind chill 31°F
Density altitude -1233 ft.
Remarks
Automated weather observing station with precipitation discriminator.
Sea-level-pressure sensor not operating.
METAR KHEF 271656Z 34016KT 10SM OVC035 04/M01 A3012 RMK AO2 SLPNO T00441011

Settings

Location code

InnerDrive.Weather 4.0.6770.0 Release CLR 4.0.30319.42000
Copyright ©2018 Inner Drive Technology. All rights reserved. Portions Copyright ©1986-2018 David Braverman.

Find weather

Site navigation


Skip Navigation Links

Place info

Page info

PayPal - The safer, easier way to pay online!

Return home.

Copyright ©2021 Inner Drive Technology. Purveyors of fine, hand-crafted computer software. Page printed 2021-01-27T17:47:51 UTC.